Time;durP1;ratioP1;P1;durP2;ratioP2;P2;SDS_P1;SDS_P2;PMS_P1;PMS_P2;Temp;Humidity;BMP_temperature;BMP_pressure;BME280_temperature;BME280_humidity;BME280_pressure;Samples;Min_cycle;Max_cycle;Signal;HPM_P1;HPM_P2
2021/12/03 00:00:10;;;;;;;37.30;34.10;;;;;;;23.55;30.04;93935.09;4964013;28;103948;-50
2021/12/03 00:02:35;;;;;;;35.30;32.40;;;;;;;23.66;29.94;93916.75;4976822;28;103542;-50
2021/12/03 00:05:01;;;;;;;34.57;31.63;;;;;;;23.65;30.49;93934.66;4978154;28;102781;-50
2021/12/03 00:07:26;;;;;;;34.30;31.30;;;;;;;23.68;30.48;93930.53;4973338;28;103734;-50
2021/12/03 00:09:52;;;;;;;34.17;31.37;;;;;;;23.69;30.31;93929.44;4970655;28;103272;-50
2021/12/03 00:12:17;;;;;;;32.90;30.10;;;;;;;23.69;30.07;93932.88;4977488;28;102728;-50
2021/12/03 00:14:42;;;;;;;33.43;30.63;;;;;;;23.59;30.36;93922.69;4978060;28;102726;-50
2021/12/03 00:17:08;;;;;;;32.67;30.07;;;;;;;23.72;30.40;93933.31;4973165;28;103190;-50
2021/12/03 00:19:33;;;;;;;32.70;30.00;;;;;;;23.58;30.29;93899.78;4962610;28;103307;-50
2021/12/03 00:21:59;;;;;;;31.83;29.13;;;;;;;23.70;30.25;93923.78;4980996;28;102694;-49
2021/12/03 00:24:24;;;;;;;31.67;28.93;;;;;;;23.70;30.35;93923.00;4980882;28;102752;-49
2021/12/03 00:26:50;;;;;;;30.50;28.00;;;;;;;23.53;30.17;93891.22;4980834;28;102906;-50
2021/12/03 00:29:15;;;;;;;29.80;27.20;;;;;;;23.72;30.17;93925.31;4973589;28;103665;-49
2021/12/03 00:31:41;;;;;;;29.67;27.17;;;;;;;23.70;30.18;93926.44;4974620;28;102818;-50
2021/12/03 00:34:07;;;;;;;29.50;27.10;;;;;;;23.71;30.06;93916.56;4981681;28;103065;-50
2021/12/03 00:36:33;;;;;;;27.40;25.20;;;;;;;23.70;29.89;93913.09;4959263;28;105888;-49
2021/12/03 00:38:59;;;;;;;29.13;26.63;;;;;;;23.70;30.28;93905.09;4969030;28;103656;-50
2021/12/03 00:41:29;;;;;;;28.00;25.70;;;;;;;23.56;30.45;93923.31;4975253;28;105054;-50
2021/12/03 00:43:55;;;;;;;27.73;25.43;;;;;;;23.64;30.20;93929.66;4981062;28;102605;-49
2021/12/03 00:46:22;;;;;;;26.63;24.43;;;;;;;23.73;29.82;93929.53;4979113;28;102856;-50
2021/12/03 00:48:50;;;;;;;26.60;24.50;;;;;;;23.65;30.20;93893.88;4962887;28;104232;-49
2021/12/03 00:51:18;;;;;;;27.90;25.50;;;;;;;23.73;30.05;93953.56;4967688;28;102880;-49
2021/12/03 00:53:44;;;;;;;28.00;25.70;;;;;;;23.73;29.88;93957.00;4951526;28;102764;-49
2021/12/03 00:56:11;;;;;;;25.70;23.40;;;;;;;23.70;30.43;93939.00;4949209;28;103707;-49
2021/12/03 00:58:37;;;;;;;25.17;23.03;;;;;;;23.73;30.15;93921.53;4952134;28;102603;-49
2021/12/03 01:01:04;;;;;;;26.23;24.03;;;;;;;23.73;30.17;93933.00;4959902;28;103642;-49
2021/12/03 01:03:31;;;;;;;25.83;23.63;;;;;;;23.72;30.34;93936.78;4955907;28;102734;-49
2021/12/03 01:05:57;;;;;;;23.60;21.60;;;;;;;23.64;30.30;93924.31;4960289;28;103228;-50
2021/12/03 01:08:22;;;;;;;25.27;23.17;;;;;;;23.72;30.22;93950.09;4949435;28;103542;-49
2021/12/03 01:10:48;;;;;;;23.67;21.70;;;;;;;23.70;30.38;93961.13;4960805;28;102708;-50
2021/12/03 01:13:14;;;;;;;23.73;21.73;;;;;;;23.72;30.36;93952.78;4961058;28;103197;-49
2021/12/03 01:15:40;;;;;;;23.00;21.13;;;;;;;23.72;29.94;93942.09;4954160;28;102694;-50
2021/12/03 01:18:08;;;;;;;22.40;20.60;;;;;;;23.72;30.42;93941.31;4946955;28;103520;-50
2021/12/03 01:20:34;;;;;;;22.43;20.53;;;;;;;23.70;29.79;93953.09;4956196;28;102815;-50
2021/12/03 01:23:01;;;;;;;21.57;19.83;;;;;;;23.70;30.24;93945.09;4960244;28;103202;-50
2021/12/03 01:25:27;;;;;;;20.00;18.37;;;;;;;23.66;30.04;93948.75;4949740;28;105867;-49
2021/12/03 01:27:54;;;;;;;21.33;19.57;;;;;;;23.69;30.26;93948.88;4947562;28;104542;-49
2021/12/03 01:30:22;;;;;;;20.77;18.97;;;;;;;23.70;30.08;93979.00;4957548;28;103230;-50
2021/12/03 01:32:49;;;;;;;20.90;19.20;;;;;;;23.61;30.09;93947.09;4960052;28;102886;-49
2021/12/03 01:35:15;;;;;;;19.93;18.23;;;;;;;23.72;29.97;93962.66;4958629;28;102754;-50
2021/12/03 01:37:42;;;;;;;20.07;18.47;;;;;;;23.72;30.29;93963.44;4943033;28;103112;-50
2021/12/03 01:40:12;;;;;;;18.93;17.40;;;;;;;23.72;30.13;93949.34;4959453;28;102745;-49
2021/12/03 01:42:38;;;;;;;19.70;18.00;;;;;;;23.61;30.16;93944.44;4960722;28;103313;-50
2021/12/03 01:45:06;;;;;;;19.87;18.17;;;;;;;23.72;30.56;93947.44;4956902;28;103046;-50
2021/12/03 01:47:32;;;;;;;19.70;18.07;;;;;;;23.68;30.05;93934.00;4945238;28;103216;-50
2021/12/03 01:49:57;;;;;;;21.03;19.23;;;;;;;23.72;30.19;93934.09;4959151;28;102844;-49
2021/12/03 01:52:23;;;;;;;19.90;18.30;;;;;;;23.72;30.46;93936.78;4960825;28;103567;-50
2021/12/03 01:54:48;;;;;;;18.17;16.77;;;;;;;23.72;30.05;93947.44;4979909;28;102971;-50
2021/12/03 01:57:14;;;;;;;19.80;18.30;;;;;;;23.74;30.23;93928.44;4973951;28;103281;-49
2021/12/03 01:59:39;;;;;;;19.60;18.00;;;;;;;23.74;30.54;93907.88;4969082;28;104162;-50
2021/12/03 02:02:05;;;;;;;19.73;18.03;;;;;;;23.73;30.39;93917.00;4979438;28;102851;-50
2021/12/03 02:04:31;;;;;;;19.20;17.50;;;;;;;23.73;30.47;93932.22;4979043;28;103012;-50
2021/12/03 02:06:56;;;;;;;18.70;17.20;;;;;;;23.72;30.29;93902.09;4966071;28;103210;-50
2021/12/03 02:09:22;;;;;;;19.10;17.50;;;;;;;23.63;30.32;93904.88;4968268;28;103541;-50
2021/12/03 02:11:47;;;;;;;18.83;17.33;;;;;;;23.72;30.21;93944.00;4979559;28;103208;-50
2021/12/03 02:14:13;;;;;;;18.53;17.03;;;;;;;23.72;30.33;93912.00;4978270;28;102730;-50
2021/12/03 02:16:40;;;;;;;18.87;17.37;;;;;;;23.60;29.83;93875.47;4964478;28;103301;-50
2021/12/03 02:19:06;;;;;;;17.93;16.43;;;;;;;23.71;30.49;93900.56;4966850;28;103580;-50
2021/12/03 02:21:32;;;;;;;18.17;16.67;;;;;;;23.72;30.08;93920.00;4975271;28;102834;-50
2021/12/03 02:23:57;;;;;;;17.37;16.07;;;;;;;23.59;30.09;93896.00;4978845;28;103449;-50
2021/12/03 02:26:23;;;;;;;17.80;16.30;;;;;;;23.54;30.58;93882.91;4978763;28;104677;-50
2021/12/03 02:28:51;;;;;;;17.30;15.90;;;;;;;23.71;30.47;93900.56;4970152;28;102778;-49
2021/12/03 02:31:19;;;;;;;17.03;15.73;;;;;;;23.68;30.12;93914.53;4974350;28;102948;-49
2021/12/03 02:33:45;;;;;;;17.73;16.33;;;;;;;23.72;30.50;93896.00;4977822;28;103221;-50
2021/12/03 02:36:11;;;;;;;17.13;15.83;;;;;;;23.70;30.57;93869.66;4968309;28;102754;-50
2021/12/03 02:38:38;;;;;;;16.80;15.50;;;;;;;23.70;30.37;93896.34;4957754;28;102795;-50
2021/12/03 02:41:04;;;;;;;16.87;15.57;;;;;;;23.70;30.22;93913.09;4969607;28;102897;-49
2021/12/03 02:43:30;;;;;;;17.50;16.10;;;;;;;23.70;30.03;93869.66;4955395;28;103422;-49
2021/12/03 02:45:57;;;;;;;17.83;16.33;;;;;;;23.58;30.39;93865.13;4977078;28;102741;-50
2021/12/03 02:48:24;;;;;;;16.90;15.50;;;;;;;23.66;30.58;93927.44;4970042;28;102876;-50
2021/12/03 02:50:49;;;;;;;16.93;15.53;;;;;;;23.61;30.33;93888.44;4979135;28;103175;-50
2021/12/03 02:53:16;;;;;;;16.80;15.40;;;;;;;23.70;30.05;93875.78;4955071;28;102873;-50
2021/12/03 02:55:42;;;;;;;16.77;15.23;;;;;;;23.70;30.12;93902.44;4978424;28;102882;-52
2021/12/03 02:58:08;;;;;;;16.63;15.23;;;;;;;23.72;30.09;93928.00;4972846;28;102859;-52
2021/12/03 03:00:36;;;;;;;15.83;14.53;;;;;;;23.72;30.51;93936.00;4978621;28;102693;-52
2021/12/03 03:03:02;;;;;;;15.97;14.67;;;;;;;23.70;30.63;93920.34;4976938;28;103266;-52
2021/12/03 03:05:28;;;;;;;17.07;15.67;;;;;;;23.59;30.19;93906.69;4971730;28;103332;-52
2021/12/03 03:07:54;;;;;;;15.57;14.27;;;;;;;23.68;30.64;93919.88;4965336;28;104643;-52
2021/12/03 03:10:25;;;;;;;15.60;14.30;;;;;;;23.69;30.10;93937.44;4951889;28;102912;-52
2021/12/03 03:12:52;;;;;;;15.60;14.30;;;;;;;23.57;30.10;93924.13;4977830;28;104595;-52
2021/12/03 03:15:18;;;;;;;15.47;14.13;;;;;;;23.69;30.00;93929.44;4962760;28;104104;-52
2021/12/03 03:17:45;;;;;;;15.90;14.60;;;;;;;23.63;30.51;93933.44;4961877;28;103582;-52
2021/12/03 03:20:11;;;;;;;14.67;13.47;;;;;;;23.69;30.38;93958.78;4966934;28;103371;-52
2021/12/03 03:22:38;;;;;;;14.50;13.23;;;;;;;23.69;30.27;93926.78;4972799;28;102648;-52
2021/12/03 03:25:06;;;;;;;15.10;13.80;;;;;;;23.67;30.41;93910.31;4972692;28;102759;-52
2021/12/03 03:27:32;;;;;;;14.63;13.43;;;;;;;23.68;29.99;93925.19;4960618;28;103387;-52
2021/12/03 03:29:57;;;;;;;13.70;12.60;;;;;;;23.68;30.42;93904.66;4971198;28;103598;-52
2021/12/03 03:32:25;;;;;;;14.07;12.97;;;;;;;23.67;30.38;93905.75;4976644;28;103348;-52
2021/12/03 03:34:50;;;;;;;13.43;12.43;;;;;;;23.56;29.97;93917.22;4977440;28;102751;-52
2021/12/03 03:37:17;;;;;;;14.20;13.10;;;;;;;23.69;30.44;93935.56;4957160;28;102782;-52
2021/12/03 03:39:43;;;;;;;14.53;13.33;;;;;;;23.70;30.42;93917.66;4972946;28;102876;-52
2021/12/03 03:42:09;;;;;;;13.00;12.00;;;;;;;23.69;30.12;93930.22;4968990;28;103273;-52
2021/12/03 03:44:35;;;;;;;12.60;11.60;;;;;;;23.70;29.92;93920.34;4970509;28;103111;-52
2021/12/03 03:47:01;;;;;;;13.17;12.17;;;;;;;23.70;29.89;93939.78;4962260;28;102622;-52
2021/12/03 03:49:28;;;;;;;12.37;11.37;;;;;;;23.68;30.42;93926.00;4950005;28;103819;-52
2021/12/03 03:51:55;;;;;;;13.00;11.90;;;;;;;23.73;29.97;93913.53;4977652;28;103402;-52
2021/12/03 03:54:21;;;;;;;13.57;12.47;;;;;;;23.61;30.18;93915.13;4980937;28;103605;-52
2021/12/03 03:56:47;;;;;;;13.03;12.03;;;;;;;23.73;30.25;93950.88;4981380;28;102898;-52
2021/12/03 03:59:16;;;;;;;12.33;11.33;;;;;;;23.75;30.13;93962.00;4959616;28;102898;-52
2021/12/03 04:01:42;;;;;;;12.37;11.47;;;;;;;23.64;30.26;93962.44;4977069;28;105005;-52
2021/12/03 04:04:08;;;;;;;11.73;10.83;;;;;;;23.65;30.07;93947.22;4981358;28;104714;-52
2021/12/03 04:06:33;;;;;;;13.63;12.53;;;;;;;23.61;30.50;93920.44;4981365;28;102812;-52
2021/12/03 04:08:59;;;;;;;13.47;12.27;;;;;;;23.73;30.06;93941.00;4982677;28;102721;-52
2021/12/03 04:11:25;;;;;;;13.43;12.33;;;;;;;23.74;30.17;93942.53;4957913;28;103646;-52
2021/12/03 04:13:50;;;;;;;14.57;13.27;;;;;;;23.53;30.61;93925.88;4980918;28;103341;-54
2021/12/03 04:16:17;;;;;;;12.90;11.57;;;;;;;23.58;30.64;93937.13;4964068;28;104755;-52
2021/12/03 04:18:42;;;;;;;14.03;12.73;;;;;;;23.63;30.04;93942.22;4980456;28;102779;-53
2021/12/03 04:21:08;;;;;;;16.00;12.90;;;;;;;23.60;30.39;93945.56;4971335;28;103234;-53
2021/12/03 04:23:34;;;;;;;13.40;12.30;;;;;;;23.56;30.54;93939.31;4976186;28;103235;-53
2021/12/03 04:26:00;;;;;;;12.77;11.60;;;;;;;23.54;30.72;93936.22;4980694;28;102634;-52
2021/12/03 04:28:25;;;;;;;13.47;12.47;;;;;;;23.54;30.45;93946.09;4981146;28;102881;-53
2021/12/03 04:30:51;;;;;;;12.30;11.07;;;;;;;23.51;30.77;93942.19;4982384;28;103309;-53
2021/12/03 04:33:17;;;;;;;12.60;11.50;;;;;;;23.46;31.04;93944.31;4975691;28;103745;-53
2021/12/03 04:35:43;;;;;;;12.83;11.53;;;;;;;23.51;31.36;93952.09;4969156;28;103285;-53
2021/12/03 04:38:08;;;;;;;12.10;10.90;;;;;;;23.35;31.26;93930.69;4979962;28;102975;-52
2021/12/03 04:40:36;;;;;;;12.67;11.57;;;;;;;23.44;31.28;93949.22;4966495;28;103220;-52
2021/12/03 04:43:02;;;;;;;12.00;10.90;;;;;;;23.41;31.00;93954.09;4980691;28;102666;-52
2021/12/03 04:45:28;;;;;;;12.07;11.07;;;;;;;23.32;31.49;93934.00;4975853;28;102923;-52
2021/12/03 04:47:55;;;;;;;11.40;10.50;;;;;;;23.42;30.88;93949.53;4981797;28;102697;-52
2021/12/03 04:50:24;;;;;;;10.33;9.43;;;;;;;23.43;31.06;93977.75;4980088;28;102999;-53
2021/12/03 04:52:49;;;;;;;12.23;11.23;;;;;;;23.44;31.66;93973.97;4970750;28;103462;-53
2021/12/03 04:55:16;;;;;;;11.60;10.60;;;;;;;23.46;31.04;93955.75;4970961;28;104828;-53
2021/12/03 04:57:42;;;;;;;11.90;10.90;;;;;;;23.43;31.07;93951.09;4980109;28;102765;-53
2021/12/03 05:00:18;;;;;;;12.10;11.10;;;;;;;23.47;31.50;93978.63;4979983;28;103785;-52
2021/12/03 05:02:44;;;;;;;12.40;11.30;;;;;;;23.37;31.38;93955.09;4977087;28;104723;-52
2021/12/03 05:05:10;;;;;;;14.20;13.00;;;;;;;23.49;31.21;93965.75;4960029;28;103212;-53
2021/12/03 05:10:08;;;;;;;12.57;11.47;;;;;;;23.65;31.48;93992.53;4976441;28;102777;-52
2021/12/03 05:12:34;;;;;;;12.90;11.83;;;;;;;23.60;31.57;93960.78;4961023;28;104017;-53
2021/12/03 05:14:59;;;;;;;14.13;12.73;;;;;;;23.72;31.61;93982.09;4960404;28;102836;-52
2021/12/03 05:17:25;;;;;;;13.80;12.60;;;;;;;23.78;31.68;94003.97;4976221;28;102985;-51
2021/12/03 05:19:51;;;;;;;13.67;12.47;;;;;;;23.80;31.79;93994.53;4978850;28;102960;-51
2021/12/03 05:22:16;;;;;;;12.30;11.40;;;;;;;23.75;32.44;93980.66;4979281;28;103618;-51
2021/12/03 05:24:45;;;;;;;9.40;8.60;;;;;;;23.56;31.91;93995.31;4977948;28;103187;-51
2021/12/03 05:27:16;;;;;;;8.83;7.93;;;;;;;23.59;31.64;94023.22;4980111;28;102680;-51
2021/12/03 05:29:43;;;;;;;9.43;8.60;;;;;;;23.56;31.46;93995.31;4976377;28;103164;-52
2021/12/03 05:32:08;;;;;;;11.13;8.97;;;;;;;23.50;31.74;93983.28;4979331;28;103626;-52
2021/12/03 05:34:35;;;;;;;10.13;9.00;;;;;;;23.50;31.61;93990.50;4979205;28;102848;-53
2021/12/03 05:37:01;;;;;;;10.93;9.93;;;;;;;23.50;31.73;94003.84;4979988;28;102874;-52
2021/12/03 05:39:27;;;;;;;11.40;10.40;;;;;;;23.48;31.61;94019.41;4976060;28;103003;-53
2021/12/03 05:41:52;;;;;;;12.57;11.37;;;;;;;23.44;31.49;94007.84;4979696;28;102762;-53
2021/12/03 05:44:18;;;;;;;14.37;13.00;;;;;;;23.49;31.45;94021.72;4980922;28;102765;-53
2021/12/03 05:46:43;;;;;;;11.90;11.00;;;;;;;23.48;31.47;94022.84;4981262;28;103179;-53
2021/12/03 05:49:09;;;;;;;12.27;11.10;;;;;;;23.30;31.62;93992.19;4980544;28;102626;-53
2021/12/03 05:51:35;;;;;;;11.97;10.93;;;;;;;23.48;31.40;94019.41;4974585;28;102840;-53
2021/12/03 05:54:00;;;;;;;13.47;12.30;;;;;;;23.48;31.87;94032.72;4979094;28;103196;-53
2021/12/03 05:56:26;;;;;;;12.13;11.03;;;;;;;23.47;31.61;94039.94;4979392;28;102881;-53
2021/12/03 05:58:52;;;;;;;12.80;11.80;;;;;;;23.34;31.37;94035.72;4978119;28;103411;-53
2021/12/03 06:01:18;;;;;;;13.03;11.93;;;;;;;23.47;31.72;94047.94;4973439;28;104534;-53
2021/12/03 06:03:45;;;;;;;14.10;12.90;;;;;;;23.46;31.45;94003.75;4979547;28;103444;-53
2021/12/03 06:06:11;;;;;;;17.00;15.57;;;;;;;23.47;31.85;94052.50;4978173;28;103046;-53
2021/12/03 06:08:37;;;;;;;19.67;17.87;;;;;;;23.46;31.54;94034.94;4980104;28;103432;-53
2021/12/03 06:11:02;;;;;;;18.90;17.40;;;;;;;23.35;31.54;94019.41;4980943;28;103975;-53
2021/12/03 06:13:28;;;;;;;18.47;16.87;;;;;;;23.45;31.56;94058.16;4975224;28;102720;-53
2021/12/03 06:15:54;;;;;;;18.67;17.07;;;;;;;23.46;31.68;94034.94;4979199;28;102834;-53
2021/12/03 06:18:19;;;;;;;18.80;17.07;;;;;;;23.45;31.63;94042.19;4979982;28;102606;-53
2021/12/03 06:20:45;;;;;;;20.73;18.80;;;;;;;23.44;31.56;94056.63;4980596;28;103230;-53
2021/12/03 06:23:10;;;;;;;17.87;16.40;;;;;;;23.45;31.46;94047.50;4974992;28;103369;-53
2021/12/03 06:25:36;;;;;;;19.30;17.67;;;;;;;23.38;31.51;94056.06;4981467;28;102784;-53
2021/12/03 06:28:02;;;;;;;17.40;15.90;;;;;;;23.36;31.44;94028.97;4979228;28;102506;-53
2021/12/03 06:30:28;;;;;;;17.77;16.27;;;;;;;23.44;31.75;94029.97;4980284;28;103396;-53
2021/12/03 06:32:53;;;;;;;19.33;17.60;;;;;;;23.45;31.79;94044.84;4980366;28;102874;-53
2021/12/03 06:35:19;;;;;;;19.30;17.60;;;;;;;23.46;31.57;94049.06;4975792;28;103822;-53
2021/12/03 06:37:46;;;;;;;18.80;17.10;;;;;;;23.46;31.54;94038.41;4980285;28;102733;-53
2021/12/03 06:40:16;;;;;;;18.70;17.20;;;;;;;23.47;31.46;94039.94;4979864;28;103660;-53
2021/12/03 06:42:42;;;;;;;17.50;16.10;;;;;;;23.48;31.57;94044.16;4959875;28;102922;-53
2021/12/03 06:45:10;;;;;;;20.37;18.43;;;;;;;23.51;31.41;94059.50;4954866;28;102742;-54
2021/12/03 06:47:35;;;;;;;19.30;17.70;;;;;;;23.64;31.37;94071.00;4958888;28;102735;-53
2021/12/03 06:50:03;;;;;;;19.50;17.70;;;;;;;23.68;31.67;94062.00;4959024;28;102744;-53
2021/12/03 06:52:31;;;;;;;20.60;18.90;;;;;;;23.56;31.44;94045.19;4959513;28;102671;-54
2021/12/03 06:54:59;;;;;;;21.13;19.30;;;;;;;23.82;31.06;94080.31;4960228;28;102701;-53
2021/12/03 06:57:25;;;;;;;21.50;19.60;;;;;;;23.92;31.09;94069.22;4954294;28;102985;-53
2021/12/03 06:59:50;;;;;;;22.70;20.80;;;;;;;23.64;31.55;94041.66;4960364;28;103566;-54
2021/12/03 07:02:16;;;;;;;22.40;20.50;;;;;;;23.68;31.18;94051.34;4959948;28;102758;-53
2021/12/03 07:04:43;;;;;;;24.60;22.40;;;;;;;23.78;31.48;94076.00;4960177;28;102749;-54
2021/12/03 07:07:10;;;;;;;22.27;20.37;;;;;;;23.67;31.82;94062.31;4953421;28;103387;-53
2021/12/03 07:09:36;;;;;;;23.57;21.47;;;;;;;23.76;31.79;94108.34;4959966;28;102814;-53
2021/12/03 07:12:01;;;;;;;21.93;20.03;;;;;;;23.74;32.07;94091.91;4959771;28;102745;-53
2021/12/03 07:14:27;;;;;;;23.70;21.70;;;;;;;23.68;31.87;94083.34;4941878;28;103090;-53
2021/12/03 07:16:52;;;;;;;25.67;23.47;;;;;;;23.59;31.92;94069.31;4959795;28;103238;-53
2021/12/03 07:19:18;;;;;;;25.37;23.27;;;;;;;23.62;31.63;94075.88;4953665;28;105117;-53
2021/12/03 07:21:43;;;;;;;26.47;24.23;;;;;;;23.63;31.54;94077.44;4960001;28;102681;-53
2021/12/03 07:24:09;;;;;;;27.47;25.20;;;;;;;23.63;31.96;94072.09;4960047;28;102810;-53
2021/12/03 07:26:34;;;;;;;26.73;24.43;;;;;;;23.61;32.03;94072.44;4959250;28;102922;-53
2021/12/03 07:29:00;;;;;;;26.37;24.17;;;;;;;23.61;32.05;94074.31;4954959;28;103093;-61
2021/12/03 07:31:26;;;;;;;27.77;25.23;;;;;;;23.60;31.66;94081.56;4959835;28;102911;-53
2021/12/03 07:33:54;;;;;;;29.00;26.50;;;;;;;23.61;32.07;94071.66;4960161;28;102889;-53
2021/12/03 07:36:20;;;;;;;27.60;25.23;;;;;;;23.54;32.13;94061.53;4959846;28;102789;-53
2021/12/03 07:38:45;;;;;;;29.27;26.77;;;;;;;23.51;31.79;94048.06;4971503;28;102676;-53
2021/12/03 07:41:11;;;;;;;28.33;25.93;;;;;;;23.63;31.62;94064.09;4974292;28;102843;-53
2021/12/03 07:43:37;;;;;;;29.57;27.17;;;;;;;23.67;31.52;94063.09;4979916;28;102956;-53
2021/12/03 07:46:02;;;;;;;31.13;28.40;;;;;;;23.73;31.43;94044.22;4979391;28;103288;-53
2021/12/03 07:48:28;;;;;;;31.93;29.03;;;;;;;23.77;31.73;94061.13;4979516;28;103266;-54
2021/12/03 07:50:56;;;;;;;35.77;32.77;;;;;;;23.75;31.64;94058.00;4974582;28;102716;-53
2021/12/03 07:53:22;;;;;;;34.30;31.40;;;;;;;23.86;31.09;94069.78;4979199;28;102798;-53
2021/12/03 07:55:49;;;;;;;34.40;31.50;;;;;;;23.88;31.39;94068.34;4978985;28;102920;-53
2021/12/03 07:58:16;;;;;;;31.83;29.23;;;;;;;23.93;31.25;94067.34;4979926;28;102862;-53
2021/12/03 08:00:44;;;;;;;35.03;32.03;;;;;;;23.90;31.50;94068.00;4979141;28;102772;-53
2021/12/03 08:03:10;;;;;;;34.33;31.53;;;;;;;23.97;31.19;94086.88;4974924;28;105239;-53
2021/12/03 08:05:35;;;;;;;35.10;32.10;;;;;;;23.91;31.52;94067.66;4979456;28;104293;-53
2021/12/03 08:08:01;;;;;;;35.03;32.13;;;;;;;23.83;31.58;94060.53;4979133;28;103275;-53
2021/12/03 08:10:27;;;;;;;37.50;34.30;;;;;;;23.94;31.49;94082.22;4978471;28;103074;-53
2021/12/03 08:12:52;;;;;;;36.60;33.50;;;;;;;23.93;32.05;94081.44;4974899;28;102847;-53
2021/12/03 08:15:18;;;;;;;37.67;34.47;;;;;;;23.91;31.11;94091.69;4978904;28;102664;-53
2021/12/03 08:17:47;;;;;;;37.30;34.20;;;;;;;23.76;31.46;94079.00;4979157;28;103311;-53
2021/12/03 08:20:13;;;;;;;36.83;33.83;;;;;;;23.85;31.46;94084.22;4979583;28;103199;-53
2021/12/03 08:22:38;;;;;;;34.80;31.80;;;;;;;23.74;31.68;94081.22;4979982;28;103481;-53
2021/12/03 08:25:04;;;;;;;35.50;32.60;;;;;;;23.69;31.42;94065.47;4973736;28;103462;-53
2021/12/03 08:27:30;;;;;;;34.37;31.40;;;;;;;23.80;31.86;94081.78;4979254;28;102540;-53
2021/12/03 08:29:55;;;;;;;33.80;31.07;;;;;;;23.74;31.37;94073.22;4978991;28;102827;-53
2021/12/03 08:32:21;;;;;;;34.43;31.53;;;;;;;23.76;31.82;94068.34;4979471;28;103142;-53
2021/12/03 08:34:47;;;;;;;35.33;32.33;;;;;;;23.77;31.74;94082.44;4974930;28;103470;-54
2021/12/03 08:37:12;;;;;;;35.10;32.10;;;;;;;23.72;31.83;94080.78;4978473;28;102667;-53
2021/12/03 08:39:38;;;;;;;36.70;33.60;;;;;;;23.74;31.42;94072.44;4961444;28;102842;-53
2021/12/03 08:42:06;;;;;;;35.97;33.07;;;;;;;23.69;31.70;94076.13;4962970;28;102795;-53
2021/12/03 08:44:32;;;;;;;37.80;34.50;;;;;;;23.63;31.73;94078.22;4961232;28;103382;-54
2021/12/03 08:47:01;;;;;;;39.90;36.60;;;;;;;23.68;32.04;94095.88;4956538;28;102837;-54
2021/12/03 08:49:32;;;;;;;38.23;34.90;;;;;;;23.55;32.10;94073.75;4961431;28;103307;-53
2021/12/03 08:57:13;;;;;;;40.43;36.80;;;;;;;23.68;31.89;94094.00;4977058;28;102780;-53
2021/12/03 08:59:38;;;;;;;36.13;33.13;;;;;;;23.67;32.02;94103.09;4981789;28;102702;-53
2021/12/03 09:02:04;;;;;;;39.93;36.53;;;;;;;23.67;31.99;94107.66;4982105;28;102764;-53
2021/12/03 09:04:30;;;;;;;37.00;33.83;;;;;;;23.67;31.68;94121.00;4982486;28;103256;-53
2021/12/03 09:06:57;;;;;;;36.93;33.83;;;;;;;23.64;31.99;94111.75;4982305;28;103333;-53
2021/12/03 09:09:24;;;;;;;36.00;33.00;;;;;;;23.55;31.52;94094.28;4976549;28;103712;-53
2021/12/03 09:11:50;;;;;;;35.47;32.37;;;;;;;23.64;31.72;94089.66;4982243;28;102798;-53
2021/12/03 09:14:21;;;;;;;35.90;32.90;;;;;;;23.64;31.71;94101.09;4981582;28;104290;-53
2021/12/03 09:16:53;;;;;;;33.77;31.07;;;;;;;23.63;31.76;94126.22;4981507;28;102854;-53
2021/12/03 09:19:25;;;;;;;34.73;31.77;;;;;;;23.64;32.00;94119.00;4977050;28;102965;-53
2021/12/03 09:21:51;;;;;;;34.87;31.80;;;;;;;23.64;31.97;94105.66;4981873;28;103102;-53
2021/12/03 09:24:19;;;;;;;34.53;31.63;;;;;;;23.47;31.85;94087.94;4980954;28;103191;-53
2021/12/03 09:26:44;;;;;;;31.73;29.10;;;;;;;23.65;31.94;94116.00;4980566;28;103625;-53
2021/12/03 09:29:12;;;;;;;33.17;30.37;;;;;;;23.55;31.78;94102.28;4981286;28;102654;-53
2021/12/03 09:31:42;;;;;;;32.80;30.00;;;;;;;23.63;32.17;94112.88;4976943;28;103458;-53
2021/12/03 09:34:10;;;;;;;32.13;29.43;;;;;;;23.65;32.06;94117.88;4980543;28;102973;-53
2021/12/03 09:36:40;;;;;;;31.23;28.63;;;;;;;23.64;32.29;94101.09;4981066;28;104504;-53
2021/12/03 09:39:06;;;;;;;29.90;27.40;;;;;;;23.64;32.04;94093.09;4965641;28;103034;-53
2021/12/03 09:41:32;;;;;;;31.23;28.63;;;;;;;23.65;32.22;94107.22;4938796;28;102716;-53
2021/12/03 09:43:59;;;;;;;30.23;27.63;;;;;;;23.65;31.83;94105.31;4961243;28;102661;-53
2021/12/03 09:46:26;;;;;;;28.40;26.00;;;;;;;23.49;31.96;94085.72;4960041;28;102859;-53
2021/12/03 09:51:22;;;;;;;24.47;22.47;;;;;;;23.63;31.83;94098.78;4961388;28;103040;-52
2021/12/03 09:56:33;;;;;;;27.37;24.97;;;;;;;23.63;31.91;94109.44;4961418;28;102818;-52
2021/12/03 10:04:35;;;;;;;28.13;25.63;;;;;;;23.63;32.14;94136.88;4956407;28;103045;-53
2021/12/03 10:15:22;;;;;;;25.77;23.57;;;;;;;23.52;31.96;94060.31;4954272;28;102799;-53
2021/12/03 10:17:55;;;;;;;25.43;23.30;;;;;;;23.72;31.83;94085.34;4960021;28;103540;-53
2021/12/03 10:28:43;;;;;;;23.67;21.60;;;;;;;23.87;31.75;94103.34;4960602;28;102673;-52
2021/12/03 10:31:57;;;;;;;22.43;20.50;;;;;;;23.85;31.63;94077.00;4960394;28;102814;-52
2021/12/03 10:36:57;;;;;;;22.30;20.50;;;;;;;23.87;31.46;94092.69;4955996;28;103099;-52
2021/12/03 10:58:59;;;;;;;20.13;18.50;;;;;;;23.92;31.40;94082.56;4972135;28;103209;-52
2021/12/03 11:20:21;;;;;;;17.70;16.30;;;;;;;23.94;31.04;94083.00;4975056;28;103084;-52
2021/12/03 11:39:08;;;;;;;16.20;14.83;;;;;;;23.96;30.88;94082.66;4965745;28;102795;-52
2021/12/03 13:08:32;;;;;;;10.27;9.47;;;;;;;23.96;31.17;94078.09;4940031;28;102678;-51
2021/12/03 13:14:15;;;;;;;10.10;9.30;;;;;;;23.91;31.25;94062.34;4942692;28;102696;-51
2021/12/03 14:02:40;;;;;;;7.13;6.50;;;;;;;23.95;30.78;94105.13;4920375;28;102832;-51
2021/12/03 14:05:25;;;;;;;7.60;7.00;;;;;;;23.94;30.70;94103.56;4921432;28;102750;-50
2021/12/03 14:57:12;;;;;;;5.20;4.80;;;;;;;23.95;30.93;94067.78;4921995;28;102640;-50
2021/12/03 14:59:42;;;;;;;6.10;5.60;;;;;;;23.95;30.96;94084.56;4920638;28;103087;-51
2021/12/03 15:09:37;;;;;;;5.10;4.70;;;;;;;23.93;30.90;94088.69;4919036;28;103170;-51
2021/12/03 15:20:23;;;;;;;4.80;4.40;;;;;;;23.93;30.81;94102.78;4921185;28;102773;-50
2021/12/03 15:25:29;;;;;;;5.37;4.97;;;;;;;23.92;30.89;94093.22;4921083;28;103145;-51
2021/12/03 15:33:26;;;;;;;4.80;4.40;;;;;;;23.93;30.89;94094.00;4918306;28;102771;-51
2021/12/03 15:35:56;;;;;;;4.90;4.50;;;;;;;23.92;30.86;94101.22;4919921;28;103012;-50
2021/12/03 16:04:52;;;;;;;4.33;4.03;;;;;;;23.94;31.21;94133.69;4943819;28;103389;-50
2021/12/03 16:12:55;;;;;;;4.20;3.90;;;;;;;23.94;30.71;94144.38;4943468;28;102771;-51
2021/12/03 16:24:26;;;;;;;5.03;4.00;;;;;;;23.94;30.83;94148.94;4943668;28;102755;-50
2021/12/03 16:51:29;;;;;;;4.27;3.97;;;;;;;23.95;31.53;94235.84;4938018;28;102835;-51
2021/12/03 16:54:04;;;;;;;4.83;4.40;;;;;;;23.92;30.89;94225.84;4942897;28;102790;-51
2021/12/03 16:56:30;;;;;;;4.10;3.80;;;;;;;23.93;31.14;94249.53;4941686;28;104376;-53
2021/12/03 16:58:58;;;;;;;8.23;5.90;;;;;;;23.88;31.45;94260.41;4942617;28;103349;-53
2021/12/03 17:01:32;;;;;;;10.10;9.20;;;;;;;23.81;32.60;94264.72;4941982;28;102775;-53
2021/12/03 17:04:10;;;;;;;13.27;9.40;;;;;;;23.78;31.83;94271.50;4943198;28;102837;-53
2021/12/03 17:49:03;;;;;;;16.77;15.13;;;;;;;23.68;33.66;94336.72;4938483;28;102925;-53
2021/12/03 17:54:30;;;;;;;16.90;15.30;;;;;;;23.68;33.68;94333.22;4941777;28;102879;-52
2021/12/03 17:57:05;;;;;;;16.20;14.73;;;;;;;23.73;33.29;94340.28;4940711;28;102782;-52
2021/12/03 17:59:49;;;;;;;15.70;14.40;;;;;;;23.70;33.35;94333.72;4942122;28;102783;-52